Carnduff, Canada
Current Conditions -  °F | °C
As of 2:00 PM on Wednesday 28 Jan 2015 (Local Time) from CYEN Reporting Station
Overcast Overcast  
Wind Chill: 12°   Ceiling: 600
Heat Index: 27°   Visibility: 7mi
Dew Point: 25°   Wind: 22mph
Humidity: 93%   Direction: 320°NW
Pressure: 30"   Gusts: NA
Location:  49.17°N, 101.78°W
Report Text: CYEN 282000Z 32019KT 7SM OVC006 M03/M04 A3000 RMK ST8 FGSLP189
Loading
Personal Weather Stations






























Interactive Weather Map New forecast layout! Learn more

10-Day Weather Forecast

Advertisements
Track Severe Weather on mobile